Milk And Honey — WDF9265 — position and weather

sailwx.info

Track history (hours):
 
Tides and Currents Weather Stations Pressure Air Temp Water Temp Dewpoint Dewpoint Depression Visibility Wind Speed Wind Dir Waves Ship Positions

Milk And Honey

Owner: EKS Chartering Inc, Parsippany, NJ. More information available from US FCC via Universal Licensing System and Coast Guard Vessel Documentation Center.

Last reported at 2017-Feb-21 17:27 UTC. Time now 2017-Feb-23 20:49 UTC.
Position N 18°04' W 063°06'.

Length 40 m.

Type: Pleasure craft. MMSI: 367503380.

Date/timePositionNaut miles runAvg speedWind from/ knotsBaromVisibWave heightAir tempDewpointWater temp
2017-Feb-21 17:27N 18°04' W 063°06'0 0.0
2017-Feb-21 16:29N 18°04' W 063°06'0 0.0
2017-Feb-21 15:19N 18°04' W 063°06'5 1.7
2017-Feb-21 12:33N 18°08' W 063°09'4 0.1
2017-Feb-20 10:25N 18°10' W 063°07'0 0.0
2017-Feb-19 21:13N 18°10' W 063°07'0 0.0
2017-Feb-19 20:31N 18°10' W 063°07'0 0.0
2017-Feb-19 19:31N 18°10' W 063°07'5 5.4
2017-Feb-19 18:33N 18°06' W 063°09'5 2.3
2017-Feb-19 16:31N 18°02' W 063°06'0 0.0
2017-Feb-19 15:30N 18°02' W 063°06'1 0.7
2017-Feb-19 14:26N 18°02' W 063°05'0 0.2
2017-Feb-19 13:05N 18°02' W 063°05'0 0.0
2017-Feb-19 12:25N 18°02' W 063°05'0 0.0
2017-Feb-19 11:27N 18°02' W 063°05'0 0.0
2017-Feb-19 10:10N 18°02' W 063°05'0 0.0
2017-Feb-19 09:21N 18°02' W 063°05'0 0.0
2017-Feb-19 08:26N 18°02' W 063°05'0 0.0
2017-Feb-19 07:25N 18°02' W 063°05'0 0.0
2017-Feb-19 06:27N 18°02' W 063°05'0 0.0
2017-Feb-19 05:23N 18°02' W 063°05'0 0.0
2017-Feb-19 04:33N 18°02' W 063°05'0 0.0
2017-Feb-19 03:24N 18°02' W 063°05'0 0.0
2017-Feb-19 02:30N 18°02' W 063°05'0 0.0
2017-Feb-19 01:20N 18°02' W 063°05'0 0.0
2017-Feb-19 00:30N 18°02' W 063°05'0 0.0
2017-Feb-18 23:20N 18°02' W 063°05'0 0.0
2017-Feb-18 22:07N 18°02' W 063°05'0 0.0
2017-Feb-18 21:29N 18°02' W 063°05'0 0.0
2017-Feb-18 20:30N 18°02' W 063°05'0 0.0
2017-Feb-18 19:20N 18°02' W 063°05'0 0.0
2017-Feb-18 18:29N 18°02' W 063°05'0 0.0
2017-Feb-18 17:29N 18°02' W 063°05'0 0.0
2017-Feb-18 16:28N 18°02' W 063°05'0 0.0
2017-Feb-18 15:30N 18°02' W 063°05'0 0.0
2017-Feb-18 14:29N 18°02' W 063°05'0 0.0
2017-Feb-18 13:17N 18°02' W 063°05'0 0.0
2017-Feb-18 12:30N 18°02' W 063°05'0 0.0
2017-Feb-18 11:29N 18°02' W 063°05'0 0.0
2017-Feb-18 10:33N 18°02' W 063°05'0 0.0
2017-Feb-18 09:21N 18°02' W 063°05'0 0.0
2017-Feb-18 08:28N 18°02' W 063°05'0 0.0
2017-Feb-18 07:17N 18°02' W 063°05'0 0.0
2017-Feb-18 06:24N 18°02' W 063°05'0 0.0
2017-Feb-18 04:24N 18°02' W 063°05'0 0.0
2017-Feb-18 03:33N 18°02' W 063°05'0 0.0
2017-Feb-18 01:23N 18°02' W 063°05'0 0.0
2017-Feb-18 00:13N 18°02' W 063°05'0 0.0
2017-Feb-17 23:22N 18°02' W 063°05'0 0.0
2017-Feb-17 21:07N 18°02' W 063°05'0 0.0
2017-Feb-17 19:29N 18°02' W 063°05'0 0.0
2017-Feb-17 18:32N 18°02' W 063°05'0 0.0
2017-Feb-17 17:27N 18°02' W 063°05'0 0.0
2017-Feb-17 16:27N 18°02' W 063°05'0 0.0
2017-Feb-17 15:30N 18°02' W 063°05'0 0.0
2017-Feb-17 14:17N 18°02' W 063°05'0 0.0
2017-Feb-17 13:28N 18°02' W 063°05'0 0.0
2017-Feb-17 12:33N 18°02' W 063°05'0 0.0
2017-Feb-17 11:32N 18°02' W 063°05'0 0.0
2017-Feb-17 10:28N 18°02' W 063°05'0 0.0
2017-Feb-17 09:31N 18°02' W 063°05'0 0.0
2017-Feb-17 08:07N 18°02' W 063°05'0 0.0
2017-Feb-17 06:08N 18°02' W 063°05'0 0.0
2017-Feb-17 05:22N 18°02' W 063°05'0 0.0
2017-Feb-17 02:30N 18°02' W 063°05'0 0.0
2017-Feb-17 01:16N 18°02' W 063°05'0 0.0
2017-Feb-16 22:33N 18°02' W 063°05'0 0.0
2017-Feb-16 21:33N 18°02' W 063°05'0 0.0
2017-Feb-16 20:32N 18°02' W 063°05'0 0.0
2017-Feb-16 19:23N 18°02' W 063°05'0 0.0
2017-Feb-16 18:32N 18°02' W 063°05'0 0.0
2017-Feb-16 17:33N 18°02' W 063°05'0 0.0
2017-Feb-16 16:32N 18°02' W 063°05'0 0.0
2017-Feb-16 15:25N 18°02' W 063°05'0 0.0
2017-Feb-16 13:17N 18°02' W 063°05'0 0.0
2017-Feb-16 12:33N 18°02' W 063°05'0 0.0
2017-Feb-16 11:23N 18°02' W 063°05'0 0.0
2017-Feb-16 10:31N 18°02' W 063°05'0 0.0
2017-Feb-16 09:26N 18°02' W 063°05'0 0.0
2017-Feb-16 08:29N 18°02' W 063°05'0 0.0
2017-Feb-16 07:29N 18°02' W 063°05'0 0.0
2017-Feb-16 06:28N 18°02' W 063°05'0 0.0
2017-Feb-16 05:24N 18°02' W 063°05'0 0.0
2017-Feb-16 04:29N 18°02' W 063°05'0 0.0
2017-Feb-16 03:26N 18°02' W 063°05'0 0.0
2017-Feb-16 02:32N 18°02' W 063°05'0 0.0
2017-Feb-16 00:26N 18°02' W 063°05'0 0.0
2017-Feb-15 23:33N 18°02' W 063°05'0 0.0
2017-Feb-15 22:29N 18°02' W 063°05'0 0.0
2017-Feb-15 21:33N 18°02' W 063°05'0 0.0
2017-Feb-15 20:27N 18°02' W 063°05'0 0.0
2017-Feb-15 19:31N 18°02' W 063°05'0 0.0
2017-Feb-15 18:15N 18°02' W 063°05'0 0.0
2017-Feb-15 17:15N 18°02' W 063°05'0 0.0
2017-Feb-15 16:29N 18°02' W 063°05'0 0.0
2017-Feb-15 15:33N 18°02' W 063°05'0 0.0
2017-Feb-15 14:30N 18°02' W 063°05'0 0.0
2017-Feb-15 13:32N 18°02' W 063°05'0 0.0
2017-Feb-15 12:17N 18°02' W 063°05'0 0.0
2017-Feb-15 11:27N 18°02' W 063°05'0 0.0
2017-Feb-15 10:30N 18°02' W 063°05'0 0.0
2017-Feb-15 09:27N 18°02' W 063°05'0 0.0
2017-Feb-15 08:22N 18°02' W 063°05'0 0.0
2017-Feb-15 07:33N 18°02' W 063°05'0 0.0
2017-Feb-15 05:33N 18°02' W 063°05'0 0.0
2017-Feb-15 04:24N 18°02' W 063°05'0 0.0
2017-Feb-15 03:32N 18°02' W 063°05'0 0.0
2017-Feb-15 02:32N 18°02' W 063°05'0 0.0
2017-Feb-15 01:20N 18°02' W 063°05'0 0.0
2017-Feb-15 00:26N 18°02' W 063°05'0 0.0
2017-Feb-14 23:31N 18°02' W 063°05'0 0.0
2017-Feb-14 22:31N 18°02' W 063°05'0 0.0
2017-Feb-14 21:18N 18°02' W 063°05'0 0.0
2017-Feb-14 19:31N 18°02' W 063°05'0 0.0
2017-Feb-14 17:33N 18°02' W 063°05'0 0.0
2017-Feb-14 16:27N 18°02' W 063°05'0 0.0
2017-Feb-14 15:33N 18°02' W 063°05'0 0.0
2017-Feb-14 14:33N 18°02' W 063°05'0 0.0
2017-Feb-14 12:34N 18°02' W 063°05'0 0.0
2017-Feb-14 11:05N 18°02' W 063°05'0 0.0
2017-Feb-14 10:33N 18°02' W 063°05'0 0.0
2017-Feb-14 09:33N 18°02' W 063°05'0 0.0
2017-Feb-14 08:28N 18°02' W 063°05'0 0.0
2017-Feb-14 07:31N 18°02' W 063°05'0 0.0
2017-Feb-14 06:31N 18°02' W 063°05'0 0.0
2017-Feb-14 05:28N 18°02' W 063°05'0 0.0
2017-Feb-14 04:30N 18°02' W 063°05'0 0.0
2017-Feb-14 03:28N 18°02' W 063°05'0 0.0
2017-Feb-14 02:33N 18°02' W 063°05'0 0.0
2017-Feb-14 00:17N 18°02' W 063°05'0 0.0
2017-Feb-13 23:25N 18°02' W 063°05'0 0.0
2017-Feb-13 22:17N 18°02' W 063°05'0 0.0
2017-Feb-13 21:24N 18°02' W 063°05'0 0.0
2017-Feb-13 20:30N 18°02' W 063°05'0 0.0
2017-Feb-13 19:29N 18°02' W 063°05'0 0.0
2017-Feb-13 17:19N 18°02' W 063°05'0 0.0
2017-Feb-13 16:32N 18°02' W 063°05'0 0.0
2017-Feb-13 15:29N 18°02' W 063°05'0 0.0
2017-Feb-13 14:30N 18°02' W 063°05'0 0.0
2017-Feb-13 13:32N 18°02' W 063°05'0 0.0
2017-Feb-13 12:31N 18°02' W 063°05'0 0.0
2017-Feb-13 11:25N 18°02' W 063°05'0 0.0
2017-Feb-13 10:08N 18°02' W 063°05'0 0.0
2017-Feb-13 09:25N 18°02' W 063°05'0 0.0
2017-Feb-13 08:32N 18°02' W 063°05'0 0.0
2017-Feb-13 07:29N 18°02' W 063°05'0 0.0
2017-Feb-13 06:32N 18°02' W 063°05'0 0.0
2017-Feb-13 05:26N 18°02' W 063°05'0 0.0
2017-Feb-13 04:33N 18°02' W 063°05'0 0.0
2017-Feb-13 03:17N 18°02' W 063°05'0 0.0
2017-Feb-13 00:27N 18°02' W 063°05'0 0.0
2017-Feb-12 23:30N 18°02' W 063°05'0 0.0
2017-Feb-12 22:29N 18°02' W 063°05'0 0.0
2017-Feb-12 21:28N 18°02' W 063°05'0 0.0
2017-Feb-12 20:26N 18°02' W 063°05'0 0.0
2017-Feb-12 19:31N 18°02' W 063°05'0 0.0
2017-Feb-12 17:26N 18°02' W 063°05'0 0.0
2017-Feb-12 16:15N 18°02' W 063°05'0 0.0
2017-Feb-12 15:31N 18°02' W 063°05'0 0.0
2017-Feb-12 13:29N 18°02' W 063°05'0 0.0
2017-Feb-12 12:31N 18°02' W 063°05'0 0.0
2017-Feb-12 11:27N 18°02' W 063°05'0 0.0
2017-Feb-12 10:25N 18°02' W 063°05'0 0.0
2017-Feb-12 09:27N 18°02' W 063°05'0 0.0
2017-Feb-12 08:15N 18°02' W 063°05'0 0.0
2017-Feb-12 07:28N 18°02' W 063°05'0 0.0
2017-Feb-12 06:26N 18°02' W 063°05'0 0.0
2017-Feb-12 05:22N 18°02' W 063°05'0 0.0
2017-Feb-12 04:18N 18°02' W 063°05'0 0.0
2017-Feb-12 03:28N 18°02' W 063°05'0 0.0
2017-Feb-12 02:27N 18°02' W 063°05'0 0.0
2017-Feb-12 01:29N 18°02' W 063°05'0 0.0
2017-Feb-12 00:22N 18°02' W 063°05'0 0.0
2017-Feb-11 23:29N 18°02' W 063°05'0 0.0
2017-Feb-11 22:21N 18°02' W 063°05'0 0.0
2017-Feb-11 21:31N 18°02' W 063°05'0 0.0
2017-Feb-11 20:06N 18°02' W 063°05'0 0.0
2017-Feb-11 19:22N 18°02' W 063°05'0 0.0
2017-Feb-11 18:32N 18°02' W 063°05'0 0.0
2017-Feb-11 17:28N 18°02' W 063°05'  
Track history (hours):
 
Tides and Currents Weather Stations Pressure Air Temp Water Temp Dewpoint Dewpoint Depression Visibility Wind Speed Wind Dir Waves Ship Positions

Milk And Honey

Owner: EKS Chartering Inc, Parsippany, NJ. More information available from US FCC via Universal Licensing System and Coast Guard Vessel Documentation Center.

Last reported at 2017-Feb-21 17:27 UTC. Time now 2017-Feb-23 20:49 UTC.
Position N 18°04' W 063°06'.

Length 40 m.

Type: Pleasure craft. MMSI: 367503380.

Date/timePositionNaut miles runAvg speedWind from/ knotsBaromVisibWave heightAir tempDewpointWater temp
2017-Feb-21 17:27N 18°04' W 063°06'0 0.0
2017-Feb-21 16:29N 18°04' W 063°06'0 0.0
2017-Feb-21 15:19N 18°04' W 063°06'5 1.7
2017-Feb-21 12:33N 18°08' W 063°09'4 0.1
2017-Feb-20 10:25N 18°10' W 063°07'0 0.0
2017-Feb-19 21:13N 18°10' W 063°07'0 0.0
2017-Feb-19 20:31N 18°10' W 063°07'0 0.0
2017-Feb-19 19:31N 18°10' W 063°07'5 5.4
2017-Feb-19 18:33N 18°06' W 063°09'5 2.3
2017-Feb-19 16:31N 18°02' W 063°06'0 0.0
2017-Feb-19 15:30N 18°02' W 063°06'1 0.7
2017-Feb-19 14:26N 18°02' W 063°05'0 0.2
2017-Feb-19 13:05N 18°02' W 063°05'0 0.0
2017-Feb-19 12:25N 18°02' W 063°05'0 0.0
2017-Feb-19 11:27N 18°02' W 063°05'0 0.0
2017-Feb-19 10:10N 18°02' W 063°05'0 0.0
2017-Feb-19 09:21N 18°02' W 063°05'0 0.0
2017-Feb-19 08:26N 18°02' W 063°05'0 0.0
2017-Feb-19 07:25N 18°02' W 063°05'0 0.0
2017-Feb-19 06:27N 18°02' W 063°05'0 0.0
2017-Feb-19 05:23N 18°02' W 063°05'0 0.0
2017-Feb-19 04:33N 18°02' W 063°05'0 0.0
2017-Feb-19 03:24N 18°02' W 063°05'0 0.0
2017-Feb-19 02:30N 18°02' W 063°05'0 0.0
2017-Feb-19 01:20N 18°02' W 063°05'0 0.0
2017-Feb-19 00:30N 18°02' W 063°05'0 0.0
2017-Feb-18 23:20N 18°02' W 063°05'0 0.0
2017-Feb-18 22:07N 18°02' W 063°05'0 0.0
2017-Feb-18 21:29N 18°02' W 063°05'0 0.0
2017-Feb-18 20:30N 18°02' W 063°05'0 0.0
2017-Feb-18 19:20N 18°02' W 063°05'0 0.0
2017-Feb-18 18:29N 18°02' W 063°05'0 0.0
2017-Feb-18 17:29N 18°02' W 063°05'0 0.0
2017-Feb-18 16:28N 18°02' W 063°05'0 0.0
2017-Feb-18 15:30N 18°02' W 063°05'0 0.0
2017-Feb-18 14:29N 18°02' W 063°05'0 0.0
2017-Feb-18 13:17N 18°02' W 063°05'0 0.0
2017-Feb-18 12:30N 18°02' W 063°05'0 0.0
2017-Feb-18 11:29N 18°02' W 063°05'0 0.0
2017-Feb-18 10:33N 18°02' W 063°05'0 0.0
2017-Feb-18 09:21N 18°02' W 063°05'0 0.0
2017-Feb-18 08:28N 18°02' W 063°05'0 0.0
2017-Feb-18 07:17N 18°02' W 063°05'0 0.0
2017-Feb-18 06:24N 18°02' W 063°05'0 0.0
2017-Feb-18 04:24N 18°02' W 063°05'0 0.0
2017-Feb-18 03:33N 18°02' W 063°05'0 0.0
2017-Feb-18 01:23N 18°02' W 063°05'0 0.0
2017-Feb-18 00:13N 18°02' W 063°05'0 0.0
2017-Feb-17 23:22N 18°02' W 063°05'0 0.0
2017-Feb-17 21:07N 18°02' W 063°05'0 0.0
2017-Feb-17 19:29N 18°02' W 063°05'0 0.0
2017-Feb-17 18:32N 18°02' W 063°05'0 0.0
2017-Feb-17 17:27N 18°02' W 063°05'0 0.0
2017-Feb-17 16:27N 18°02' W 063°05'0 0.0
2017-Feb-17 15:30N 18°02' W 063°05'0 0.0
2017-Feb-17 14:17N 18°02' W 063°05'0 0.0
2017-Feb-17 13:28N 18°02' W 063°05'0 0.0
2017-Feb-17 12:33N 18°02' W 063°05'0 0.0
2017-Feb-17 11:32N 18°02' W 063°05'0 0.0
2017-Feb-17 10:28N 18°02' W 063°05'0 0.0
2017-Feb-17 09:31N 18°02' W 063°05'0 0.0
2017-Feb-17 08:07N 18°02' W 063°05'0 0.0
2017-Feb-17 06:08N 18°02' W 063°05'0 0.0
2017-Feb-17 05:22N 18°02' W 063°05'0 0.0
2017-Feb-17 02:30N 18°02' W 063°05'0 0.0
2017-Feb-17 01:16N 18°02' W 063°05'0 0.0
2017-Feb-16 22:33N 18°02' W 063°05'0 0.0
2017-Feb-16 21:33N 18°02' W 063°05'0 0.0
2017-Feb-16 20:32N 18°02' W 063°05'0 0.0
2017-Feb-16 19:23N 18°02' W 063°05'0 0.0
2017-Feb-16 18:32N 18°02' W 063°05'0 0.0
2017-Feb-16 17:33N 18°02' W 063°05'0 0.0
2017-Feb-16 16:32N 18°02' W 063°05'0 0.0
2017-Feb-16 15:25N 18°02' W 063°05'0 0.0
2017-Feb-16 13:17N 18°02' W 063°05'0 0.0
2017-Feb-16 12:33N 18°02' W 063°05'0 0.0
2017-Feb-16 11:23N 18°02' W 063°05'0 0.0
2017-Feb-16 10:31N 18°02' W 063°05'0 0.0
2017-Feb-16 09:26N 18°02' W 063°05'0 0.0
2017-Feb-16 08:29N 18°02' W 063°05'0 0.0
2017-Feb-16 07:29N 18°02' W 063°05'0 0.0
2017-Feb-16 06:28N 18°02' W 063°05'0 0.0
2017-Feb-16 05:24N 18°02' W 063°05'0 0.0
2017-Feb-16 04:29N 18°02' W 063°05'0 0.0
2017-Feb-16 03:26N 18°02' W 063°05'0 0.0
2017-Feb-16 02:32N 18°02' W 063°05'0 0.0
2017-Feb-16 00:26N 18°02' W 063°05'0 0.0
2017-Feb-15 23:33N 18°02' W 063°05'0 0.0
2017-Feb-15 22:29N 18°02' W 063°05'0 0.0
2017-Feb-15 21:33N 18°02' W 063°05'0 0.0
2017-Feb-15 20:27N 18°02' W 063°05'0 0.0
2017-Feb-15 19:31N 18°02' W 063°05'0 0.0
2017-Feb-15 18:15N 18°02' W 063°05'0 0.0
2017-Feb-15 17:15N 18°02' W 063°05'0 0.0
2017-Feb-15 16:29N 18°02' W 063°05'0 0.0
2017-Feb-15 15:33N 18°02' W 063°05'0 0.0
2017-Feb-15 14:30N 18°02' W 063°05'0 0.0
2017-Feb-15 13:32N 18°02' W 063°05'0 0.0
2017-Feb-15 12:17N 18°02' W 063°05'0 0.0
2017-Feb-15 11:27N 18°02' W 063°05'0 0.0
2017-Feb-15 10:30N 18°02' W 063°05'0 0.0
2017-Feb-15 09:27N 18°02' W 063°05'0 0.0
2017-Feb-15 08:22N 18°02' W 063°05'0 0.0
2017-Feb-15 07:33N 18°02' W 063°05'0 0.0
2017-Feb-15 05:33N 18°02' W 063°05'0 0.0
2017-Feb-15 04:24N 18°02' W 063°05'0 0.0
2017-Feb-15 03:32N 18°02' W 063°05'0 0.0
2017-Feb-15 02:32N 18°02' W 063°05'0 0.0
2017-Feb-15 01:20N 18°02' W 063°05'0 0.0
2017-Feb-15 00:26N 18°02' W 063°05'0 0.0
2017-Feb-14 23:31N 18°02' W 063°05'0 0.0
2017-Feb-14 22:31N 18°02' W 063°05'0 0.0
2017-Feb-14 21:18N 18°02' W 063°05'0 0.0
2017-Feb-14 19:31N 18°02' W 063°05'0 0.0
2017-Feb-14 17:33N 18°02' W 063°05'0 0.0
2017-Feb-14 16:27N 18°02' W 063°05'0 0.0
2017-Feb-14 15:33N 18°02' W 063°05'0 0.0
2017-Feb-14 14:33N 18°02' W 063°05'0 0.0
2017-Feb-14 12:34N 18°02' W 063°05'0 0.0
2017-Feb-14 11:05N 18°02' W 063°05'0 0.0
2017-Feb-14 10:33N 18°02' W 063°05'0 0.0
2017-Feb-14 09:33N 18°02' W 063°05'0 0.0
2017-Feb-14 08:28N 18°02' W 063°05'0 0.0
2017-Feb-14 07:31N 18°02' W 063°05'0 0.0
2017-Feb-14 06:31N 18°02' W 063°05'0 0.0
2017-Feb-14 05:28N 18°02' W 063°05'0 0.0
2017-Feb-14 04:30N 18°02' W 063°05'0 0.0
2017-Feb-14 03:28N 18°02' W 063°05'0 0.0
2017-Feb-14 02:33N 18°02' W 063°05'0 0.0
2017-Feb-14 00:17N 18°02' W 063°05'0 0.0
2017-Feb-13 23:25N 18°02' W 063°05'0 0.0
2017-Feb-13 22:17N 18°02' W 063°05'0 0.0
2017-Feb-13 21:24N 18°02' W 063°05'0 0.0
2017-Feb-13 20:30N 18°02' W 063°05'0 0.0
2017-Feb-13 19:29N 18°02' W 063°05'0 0.0
2017-Feb-13 17:19N 18°02' W 063°05'0 0.0
2017-Feb-13 16:32N 18°02' W 063°05'0 0.0
2017-Feb-13 15:29N 18°02' W 063°05'0 0.0
2017-Feb-13 14:30N 18°02' W 063°05'0 0.0
2017-Feb-13 13:32N 18°02' W 063°05'0 0.0
2017-Feb-13 12:31N 18°02' W 063°05'0 0.0
2017-Feb-13 11:25N 18°02' W 063°05'0 0.0
2017-Feb-13 10:08N 18°02' W 063°05'0 0.0
2017-Feb-13 09:25N 18°02' W 063°05'0 0.0
2017-Feb-13 08:32N 18°02' W 063°05'0 0.0
2017-Feb-13 07:29N 18°02' W 063°05'0 0.0
2017-Feb-13 06:32N 18°02' W 063°05'0 0.0
2017-Feb-13 05:26N 18°02' W 063°05'0 0.0
2017-Feb-13 04:33N 18°02' W 063°05'0 0.0
2017-Feb-13 03:17N 18°02' W 063°05'0 0.0
2017-Feb-13 00:27N 18°02' W 063°05'0 0.0
2017-Feb-12 23:30N 18°02' W 063°05'0 0.0
2017-Feb-12 22:29N 18°02' W 063°05'0 0.0
2017-Feb-12 21:28N 18°02' W 063°05'0 0.0
2017-Feb-12 20:26N 18°02' W 063°05'0 0.0
2017-Feb-12 19:31N 18°02' W 063°05'0 0.0
2017-Feb-12 17:26N 18°02' W 063°05'0 0.0
2017-Feb-12 16:15N 18°02' W 063°05'0 0.0
2017-Feb-12 15:31N 18°02' W 063°05'0 0.0
2017-Feb-12 13:29N 18°02' W 063°05'0 0.0
2017-Feb-12 12:31N 18°02' W 063°05'0 0.0
2017-Feb-12 11:27N 18°02' W 063°05'0 0.0
2017-Feb-12 10:25N 18°02' W 063°05'0 0.0
2017-Feb-12 09:27N 18°02' W 063°05'0 0.0
2017-Feb-12 08:15N 18°02' W 063°05'0 0.0
2017-Feb-12 07:28N 18°02' W 063°05'0 0.0
2017-Feb-12 06:26N 18°02' W 063°05'0 0.0
2017-Feb-12 05:22N 18°02' W 063°05'0 0.0
2017-Feb-12 04:18N 18°02' W 063°05'0 0.0
2017-Feb-12 03:28N 18°02' W 063°05'0 0.0
2017-Feb-12 02:27N 18°02' W 063°05'0 0.0
2017-Feb-12 01:29N 18°02' W 063°05'0 0.0
2017-Feb-12 00:22N 18°02' W 063°05'0 0.0
2017-Feb-11 23:29N 18°02' W 063°05'0 0.0
2017-Feb-11 22:21N 18°02' W 063°05'0 0.0
2017-Feb-11 21:31N 18°02' W 063°05'0 0.0
2017-Feb-11 20:06N 18°02' W 063°05'0 0.0
2017-Feb-11 19:22N 18°02' W 063°05'0 0.0
2017-Feb-11 18:32N 18°02' W 063°05'0 0.0
2017-Feb-11 17:28N 18°02' W 063°05'  

Dump ship's entire track history